Time;durP1;ratioP1;P1;durP2;ratioP2;P2;SDS_P1;SDS_P2;PMS_P1;PMS_P2;Temp;Humidity;BMP_temperature;BMP_pressure;BME280_temperature;BME280_humidity;BME280_pressure;Samples;Min_cycle;Max_cycle;Signal;HPM_P1;HPM_P2
2023/12/19 00:00:33;;;;;;;13.23;5.25;;;8.00;99.90;;;;;;5107132;28;20484;-71
2023/12/19 00:02:58;;;;;;;13.95;5.15;;;8.00;99.90;;;;;;5111449;27;20555;-71
2023/12/19 00:05:24;;;;;;;13.80;5.80;;;8.00;99.90;;;;;;5110380;27;20027;-71
2023/12/19 00:07:50;;;;;;;10.95;4.25;;;8.00;99.90;;;;;;5097522;27;20054;-71
2023/12/19 00:10:16;;;;;;;10.05;3.90;;;7.90;99.90;;;;;;5114228;27;20610;-71
2023/12/19 00:12:42;;;;;;;12.70;4.85;;;8.00;99.90;;;;;;5096982;27;20027;-71
2023/12/19 00:15:08;;;;;;;11.65;4.72;;;8.00;99.90;;;;;;5150445;27;20050;-71
2023/12/19 00:17:33;;;;;;;8.52;4.57;;;8.00;99.90;;;;;;5101147;27;20543;-71
2023/12/19 00:19:59;;;;;;;7.57;3.90;;;8.00;99.90;;;;;;5108482;27;20209;-71
2023/12/19 00:22:25;;;;;;;14.85;4.85;;;8.00;99.90;;;;;;5112867;27;20046;-71
2023/12/19 00:24:51;;;;;;;8.82;3.72;;;7.90;99.90;;;;;;5116245;27;20636;-71
2023/12/19 00:27:17;;;;;;;8.18;4.20;;;8.00;99.90;;;;;;5098670;27;20031;-71
2023/12/19 00:29:43;;;;;;;8.93;3.30;;;8.00;99.90;;;;;;5123552;27;20047;-71
2023/12/19 00:32:08;;;;;;;4.88;3.00;;;8.00;99.90;;;;;;5125491;27;20046;-71
2023/12/19 00:34:34;;;;;;;5.68;2.08;;;8.00;99.90;;;;;;5113836;27;20043;-71
2023/12/19 00:37:00;;;;;;;9.13;3.47;;;8.00;99.90;;;;;;5114821;27;20048;-71
2023/12/19 00:39:27;;;;;;;11.95;3.70;;;8.00;99.90;;;;;;5114913;27;20031;-71
2023/12/19 00:41:53;;;;;;;6.53;3.05;;;8.00;99.90;;;;;;5095126;27;20039;-71
2023/12/19 00:44:19;;;;;;;14.98;3.92;;;8.00;99.90;;;;;;5145858;27;20038;-71
2023/12/19 00:46:44;;;;;;;8.52;2.85;;;8.00;99.90;;;;;;5111445;27;20035;-71
2023/12/19 00:49:10;;;;;;;8.05;3.00;;;8.10;99.90;;;;;;5151982;27;20143;-71
2023/12/19 00:51:37;;;;;;;9.30;3.92;;;8.10;99.90;;;;;;5108629;27;20114;-71
2023/12/19 00:54:02;;;;;;;8.88;3.42;;;8.00;99.90;;;;;;5103155;27;20552;-71
2023/12/19 00:56:28;;;;;;;6.38;2.55;;;8.10;99.90;;;;;;5113694;27;20050;-71
2023/12/19 00:58:54;;;;;;;8.48;3.05;;;8.10;99.90;;;;;;5112185;27;20031;-71
2023/12/19 01:01:23;;;;;;;7.63;3.28;;;8.10;99.90;;;;;;5113963;27;20045;-71
2023/12/19 01:03:49;;;;;;;10.48;3.97;;;8.10;99.90;;;;;;5110581;27;20097;-71
2023/12/19 01:06:15;;;;;;;8.85;3.10;;;8.10;99.90;;;;;;5114642;27;20034;-71
2023/12/19 01:08:41;;;;;;;7.32;3.30;;;8.10;99.90;;;;;;5115563;27;20031;-71
2023/12/19 01:11:09;;;;;;;6.78;3.22;;;8.10;99.90;;;;;;5094943;27;20499;-71
2023/12/19 01:13:38;;;;;;;6.05;2.55;;;8.10;99.90;;;;;;5094388;27;20035;-71
2023/12/19 01:16:04;;;;;;;9.45;3.35;;;8.10;99.90;;;;;;5129521;27;20096;-71
2023/12/19 01:18:31;;;;;;;5.18;2.38;;;8.10;99.90;;;;;;5147744;27;20488;-71
2023/12/19 01:20:56;;;;;;;9.00;3.00;;;8.10;99.90;;;;;;5112144;27;20031;-72
2023/12/19 01:23:23;;;;;;;5.15;3.30;;;8.10;99.90;;;;;;5126644;27;20034;-71
2023/12/19 01:25:48;;;;;;;8.02;3.55;;;8.10;99.90;;;;;;5130288;27;20707;-71
2023/12/19 01:28:14;;;;;;;8.50;3.22;;;8.10;99.90;;;;;;5108972;27;20078;-71
2023/12/19 01:30:40;;;;;;;7.25;2.63;;;8.10;99.90;;;;;;5120183;27;20058;-71
2023/12/19 01:33:08;;;;;;;5.40;3.05;;;8.10;99.90;;;;;;5106673;27;20401;-71
2023/12/19 01:35:33;;;;;;;6.07;2.75;;;8.10;99.90;;;;;;5111962;27;20043;-71
2023/12/19 01:37:59;;;;;;;4.75;3.00;;;8.00;99.90;;;;;;5094617;27;20050;-71
2023/12/19 01:40:28;;;;;;;7.72;2.58;;;8.00;99.90;;;;;;5150219;27;20116;-71
2023/12/19 01:42:55;;;;;;;4.30;2.08;;;8.10;99.90;;;;;;5092294;27;20568;-71
2023/12/19 01:45:22;;;;;;;6.35;2.53;;;8.10;99.90;;;;;;5111165;27;20043;-72
2023/12/19 01:47:48;;;;;;;10.30;2.45;;;8.10;99.90;;;;;;5112918;27;20031;-74
2023/12/19 01:50:15;;;;;;;3.85;2.42;;;8.10;99.90;;;;;;5111329;27;20114;-73
2023/12/19 01:52:48;;;;;;;4.93;2.05;;;8.10;99.90;;;;;;5104709;27;20087;-71
2023/12/19 01:55:14;;;;;;;3.35;1.80;;;8.20;99.90;;;;;;5125655;27;20108;-71
2023/12/19 01:57:40;;;;;;;4.97;2.00;;;8.20;99.90;;;;;;5115089;27;20142;-71
2023/12/19 02:00:07;;;;;;;6.00;1.90;;;8.20;99.90;;;;;;5113259;27;20125;-71
2023/12/19 02:02:33;;;;;;;5.47;2.15;;;8.20;99.90;;;;;;5102962;27;20135;-71
2023/12/19 02:04:59;;;;;;;6.88;2.13;;;8.20;99.90;;;;;;5111218;27;20022;-71
2023/12/19 02:07:25;;;;;;;5.45;2.13;;;8.20;99.90;;;;;;5106534;27;20080;-71
2023/12/19 02:09:54;;;;;;;6.57;2.65;;;8.20;99.90;;;;;;5115989;27;20039;-71
2023/12/19 02:12:21;;;;;;;4.32;2.13;;;8.10;99.90;;;;;;5140734;27;20388;-71
2023/12/19 02:14:47;;;;;;;5.75;2.03;;;8.10;99.90;;;;;;5115717;27;20035;-71
2023/12/19 02:17:14;;;;;;;5.05;2.05;;;8.10;99.90;;;;;;5108334;27;20051;-71
2023/12/19 02:19:44;;;;;;;6.22;1.70;;;8.10;99.90;;;;;;5109682;27;20048;-71
2023/12/19 02:22:10;;;;;;;5.10;2.22;;;8.10;99.90;;;;;;5124836;27;20043;-71
2023/12/19 02:24:36;;;;;;;3.45;1.67;;;8.10;99.90;;;;;;5147520;27;20042;-71
2023/12/19 02:27:02;;;;;;;6.53;2.08;;;8.00;99.90;;;;;;5093104;27;20027;-71
2023/12/19 02:29:28;;;;;;;4.65;1.33;;;8.00;99.90;;;;;;5113428;27;20601;-71
2023/12/19 02:31:53;;;;;;;5.25;2.05;;;8.00;99.90;;;;;;5123439;27;20031;-71
2023/12/19 02:34:19;;;;;;;4.07;1.98;;;8.00;99.90;;;;;;5144582;27;20042;-71
2023/12/19 02:36:45;;;;;;;4.55;1.48;;;8.00;99.90;;;;;;5120710;27;20070;-71
2023/12/19 02:39:10;;;;;;;7.07;2.70;;;8.00;99.90;;;;;;5113781;27;20049;-71
2023/12/19 02:41:36;;;;;;;5.55;1.85;;;8.00;99.90;;;;;;5113846;27;20027;-71
2023/12/19 02:44:02;;;;;;;5.53;1.75;;;8.00;99.90;;;;;;5112894;27;20039;-71
2023/12/19 02:46:27;;;;;;;4.68;1.42;;;8.00;99.90;;;;;;5116127;27;20031;-71
2023/12/19 02:48:53;;;;;;;3.75;2.03;;;8.00;99.90;;;;;;5094893;27;20369;-71
2023/12/19 02:51:20;;;;;;;4.95;1.85;;;7.90;99.90;;;;;;5108456;27;20125;-71
2023/12/19 02:53:46;;;;;;;3.92;3.10;;;7.90;99.90;;;;;;5112859;27;20516;-71
2023/12/19 02:56:11;;;;;;;4.70;1.70;;;8.00;99.90;;;;;;5105537;27;20507;-71
2023/12/19 02:58:37;;;;;;;4.22;1.75;;;7.90;99.90;;;;;;5112626;27;20035;-70
2023/12/19 03:01:06;;;;;;;2.60;1.98;;;8.00;99.90;;;;;;5125042;27;20031;-71
2023/12/19 03:03:32;;;;;;;3.63;1.67;;;7.90;99.90;;;;;;5130519;27;20387;-71
2023/12/19 03:05:57;;;;;;;6.57;1.63;;;8.00;99.90;;;;;;5104514;27;20027;-70
2023/12/19 03:08:23;;;;;;;4.25;2.47;;;8.00;99.90;;;;;;5112032;27;20457;-70
2023/12/19 03:10:49;;;;;;;4.28;1.75;;;7.90;99.90;;;;;;5144039;27;20138;-70
2023/12/19 03:13:14;;;;;;;4.65;2.08;;;7.90;99.90;;;;;;5096568;27;20043;-70
2023/12/19 03:15:40;;;;;;;3.30;1.88;;;7.90;99.90;;;;;;5111709;27;20031;-70
2023/12/19 03:18:06;;;;;;;4.15;1.63;;;7.90;99.90;;;;;;5089633;27;20113;-71
2023/12/19 03:20:31;;;;;;;5.25;1.90;;;7.90;99.90;;;;;;5106873;27;20114;-70
2023/12/19 03:22:57;;;;;;;4.60;1.75;;;7.80;99.90;;;;;;5108873;27;20043;-70
2023/12/19 03:25:23;;;;;;;3.55;1.52;;;7.80;99.90;;;;;;5109301;27;20105;-70
2023/12/19 03:27:48;;;;;;;3.15;1.75;;;7.80;99.90;;;;;;5098971;28;20032;-71
2023/12/19 03:30:14;;;;;;;5.28;1.50;;;7.80;99.90;;;;;;5093997;27;20035;-71
2023/12/19 03:32:39;;;;;;;3.60;1.50;;;7.80;99.90;;;;;;5112978;27;20653;-71
2023/12/19 03:35:06;;;;;;;5.65;1.90;;;7.80;99.90;;;;;;5119998;27;21705;-71
2023/12/19 03:37:31;;;;;;;3.88;1.95;;;7.80;99.90;;;;;;5107473;27;20073;-71
2023/12/19 03:39:57;;;;;;;5.05;1.73;;;7.80;99.90;;;;;;5125642;27;20469;-70
2023/12/19 03:42:23;;;;;;;4.50;1.83;;;7.80;99.90;;;;;;5124474;27;20118;-71
2023/12/19 03:44:49;;;;;;;3.08;1.75;;;7.80;99.90;;;;;;5127162;27;20070;-71
2023/12/19 03:47:15;;;;;;;4.93;2.65;;;7.90;99.90;;;;;;5131216;27;20038;-71
2023/12/19 03:49:41;;;;;;;4.10;1.63;;;7.80;99.90;;;;;;5097053;27;20039;-71
2023/12/19 03:52:08;;;;;;;4.03;1.98;;;7.80;99.90;;;;;;5099194;27;20047;-70
2023/12/19 03:54:33;;;;;;;4.57;2.13;;;7.80;99.90;;;;;;5129391;27;20039;-71
2023/12/19 03:56:59;;;;;;;2.65;1.40;;;7.80;99.90;;;;;;5161970;27;20313;-71
2023/12/19 03:59:24;;;;;;;4.05;1.48;;;7.80;99.90;;;;;;5127687;27;20137;-71
2023/12/19 04:01:51;;;;;;;2.67;1.20;;;7.80;99.90;;;;;;5103415;27;20039;-71
2023/12/19 04:04:17;;;;;;;4.72;1.75;;;7.90;99.90;;;;;;5142363;27;20049;-71
2023/12/19 04:06:43;;;;;;;3.13;1.75;;;7.80;99.90;;;;;;5150852;27;20023;-71
2023/12/19 04:09:10;;;;;;;6.50;1.52;;;7.80;99.90;;;;;;5129265;27;20126;-71
2023/12/19 04:11:36;;;;;;;2.78;1.60;;;7.80;99.90;;;;;;5116431;27;20046;-71
2023/12/19 04:14:02;;;;;;;4.15;2.15;;;7.80;99.90;;;;;;5113487;27;20049;-71
2023/12/19 04:16:28;;;;;;;2.58;1.00;;;7.90;99.90;;;;;;5128884;27;20035;-71
2023/12/19 04:18:53;;;;;;;3.90;1.80;;;7.80;99.90;;;;;;5160411;27;20031;-71
2023/12/19 04:21:19;;;;;;;3.65;1.90;;;7.80;99.90;;;;;;5150379;27;20508;-71
2023/12/19 04:23:45;;;;;;;4.07;1.40;;;7.80;99.90;;;;;;5123039;27;20109;-71
2023/12/19 04:26:19;;;;;;;4.53;2.13;;;7.90;99.90;;;;;;5130454;27;20041;-71
2023/12/19 04:28:44;;;;;;;2.90;1.25;;;7.80;99.90;;;;;;5128045;27;20045;-71
2023/12/19 04:31:10;;;;;;;5.78;1.80;;;7.90;99.90;;;;;;5094060;27;20654;-71
2023/12/19 04:33:36;;;;;;;4.32;1.90;;;7.80;99.90;;;;;;5122292;27;20802;-71
2023/12/19 04:36:02;;;;;;;3.38;1.33;;;7.90;99.90;;;;;;5101343;27;20541;-71
2023/12/19 04:38:28;;;;;;;4.65;2.22;;;7.90;99.90;;;;;;5126888;27;20399;-71
2023/12/19 04:40:53;;;;;;;3.70;1.60;;;7.80;99.90;;;;;;5153158;27;20027;-71
2023/12/19 04:43:19;;;;;;;4.32;1.52;;;7.80;99.90;;;;;;5145215;27;20038;-71
2023/12/19 04:45:45;;;;;;;4.15;2.00;;;7.80;99.90;;;;;;5152384;27;20508;-71
2023/12/19 04:48:10;;;;;;;3.08;2.03;;;7.80;99.90;;;;;;5144025;27;20112;-71
2023/12/19 04:50:36;;;;;;;2.00;1.40;;;7.90;99.90;;;;;;5127007;27;20808;-71
2023/12/19 04:53:02;;;;;;;2.47;1.27;;;7.80;99.90;;;;;;5126780;27;20039;-71
2023/12/19 04:55:27;;;;;;;3.45;1.67;;;7.80;99.90;;;;;;5167532;27;20061;-71
2023/12/19 04:57:53;;;;;;;4.43;1.75;;;7.80;99.90;;;;;;5118910;27;20027;-71
2023/12/19 05:00:19;;;;;;;3.67;1.27;;;7.90;99.90;;;;;;5136759;27;20039;-71
2023/12/19 05:02:44;;;;;;;2.92;1.65;;;7.80;99.90;;;;;;5149593;27;20403;-71
2023/12/19 05:05:10;;;;;;;3.38;1.65;;;7.80;99.90;;;;;;5103066;27;20031;-71
2023/12/19 05:07:36;;;;;;;4.80;1.10;;;7.80;99.90;;;;;;5147949;27;20037;-71
2023/12/19 05:10:02;;;;;;;3.30;1.55;;;7.80;99.90;;;;;;5147812;27;20035;-71
2023/12/19 05:12:28;;;;;;;2.45;1.27;;;7.80;99.90;;;;;;5108749;27;20038;-71
2023/12/19 05:14:53;;;;;;;2.75;0.95;;;7.80;99.90;;;;;;5164623;27;20046;-71
2023/12/19 05:17:19;;;;;;;2.90;1.50;;;7.80;99.90;;;;;;5133535;27;20487;-71
2023/12/19 05:19:44;;;;;;;2.63;1.00;;;7.90;99.90;;;;;;5123022;27;20082;-71
2023/12/19 05:22:10;;;;;;;4.20;1.48;;;7.90;99.90;;;;;;5118073;27;20030;-71
2023/12/19 05:24:38;;;;;;;3.15;1.40;;;7.90;99.90;;;;;;5133037;27;20046;-71
2023/12/19 05:27:07;;;;;;;3.03;1.20;;;7.90;99.90;;;;;;5107940;27;20043;-71
2023/12/19 05:29:32;;;;;;;2.55;1.13;;;7.90;99.90;;;;;;5117060;27;20068;-71
2023/12/19 05:31:58;;;;;;;2.85;1.13;;;7.90;99.90;;;;;;5116155;27;20184;-71
2023/12/19 05:34:24;;;;;;;3.47;1.40;;;7.90;99.90;;;;;;5108691;27;20047;-71
2023/12/19 05:36:50;;;;;;;2.60;0.88;;;7.90;99.90;;;;;;5108841;27;20567;-71
2023/12/19 05:39:17;;;;;;;2.42;1.05;;;7.90;99.90;;;;;;5117558;27;20482;-71
2023/12/19 05:41:43;;;;;;;4.82;1.63;;;7.90;99.90;;;;;;5128077;27;20042;-71
2023/12/19 05:44:11;;;;;;;2.25;0.98;;;7.90;99.90;;;;;;5117957;27;20600;-71
2023/12/19 05:46:40;;;;;;;3.58;1.17;;;7.90;99.90;;;;;;5123780;27;20173;-71
2023/12/19 05:49:06;;;;;;;2.72;1.15;;;8.00;99.90;;;;;;5148021;27;20083;-71
2023/12/19 05:51:31;;;;;;;2.35;1.17;;;7.90;99.90;;;;;;5100180;27;20113;-71
2023/12/19 05:53:59;;;;;;;4.28;1.25;;;7.90;99.90;;;;;;5104486;27;20043;-71
2023/12/19 05:56:25;;;;;;;3.35;1.48;;;7.90;99.90;;;;;;5160492;27;20086;-71
2023/12/19 05:58:51;;;;;;;2.25;0.88;;;8.00;99.90;;;;;;5119821;27;20154;-71
2023/12/19 06:01:17;;;;;;;2.10;0.88;;;8.00;99.90;;;;;;5118586;27;20038;-71
2023/12/19 06:03:42;;;;;;;3.60;1.85;;;8.00;99.90;;;;;;5125524;27;20038;-71
2023/12/19 06:06:12;;;;;;;2.03;0.73;;;8.00;99.90;;;;;;5123584;27;20031;-71
2023/12/19 06:08:37;;;;;;;2.83;0.75;;;8.00;99.90;;;;;;5120261;27;20530;-71
2023/12/19 06:11:03;;;;;;;2.80;1.30;;;8.00;99.90;;;;;;5123665;27;20102;-71
2023/12/19 06:13:29;;;;;;;2.47;0.50;;;8.00;99.90;;;;;;5108614;27;20050;-71
2023/12/19 06:15:55;;;;;;;3.92;1.35;;;7.90;99.90;;;;;;5154172;27;20504;-71
2023/12/19 06:18:20;;;;;;;2.25;0.95;;;8.00;99.90;;;;;;5147727;27;20043;-71
2023/12/19 06:20:46;;;;;;;5.75;1.75;;;8.00;99.90;;;;;;5151567;27;20034;-71
2023/12/19 06:23:11;;;;;;;2.33;1.50;;;8.00;99.90;;;;;;5107309;27;20023;-71
2023/12/19 06:25:38;;;;;;;1.95;0.98;;;8.00;99.90;;;;;;5125033;27;20039;-71
2023/12/19 06:28:05;;;;;;;2.95;0.88;;;8.00;99.90;;;;;;5108915;27;20070;-71
2023/12/19 06:30:30;;;;;;;2.58;0.98;;;8.00;99.90;;;;;;5128825;27;20046;-71
2023/12/19 06:32:56;;;;;;;2.83;0.70;;;8.00;99.90;;;;;;5113054;27;20056;-71
2023/12/19 06:35:22;;;;;;;1.65;0.98;;;8.00;99.90;;;;;;5142669;27;20050;-71
2023/12/19 06:37:48;;;;;;;2.75;1.13;;;8.00;99.90;;;;;;5096606;27;20747;-71
2023/12/19 06:40:13;;;;;;;1.55;0.90;;;8.10;99.90;;;;;;5154063;27;20080;-71
2023/12/19 06:42:40;;;;;;;2.58;1.30;;;8.10;99.90;;;;;;5106600;27;20087;-71
2023/12/19 06:45:06;;;;;;;2.83;0.98;;;8.00;99.90;;;;;;5110079;27;20031;-70
2023/12/19 06:47:33;;;;;;;1.88;0.70;;;8.00;99.90;;;;;;5095966;27;20039;-71
2023/12/19 06:49:59;;;;;;;1.35;0.70;;;8.00;99.90;;;;;;5130982;27;20046;-70
2023/12/19 06:52:24;;;;;;;1.92;0.68;;;8.00;99.90;;;;;;5149962;27;20046;-70
2023/12/19 06:54:50;;;;;;;2.22;0.85;;;8.10;99.90;;;;;;5162428;27;20066;-70
2023/12/19 06:57:16;;;;;;;2.92;1.00;;;8.10;99.90;;;;;;5131129;27;20487;-71
2023/12/19 06:59:42;;;;;;;2.00;1.02;;;8.00;99.90;;;;;;5122853;27;20118;-71
2023/12/19 07:02:07;;;;;;;1.83;0.80;;;8.10;99.90;;;;;;5095869;27;20540;-71
2023/12/19 07:04:33;;;;;;;2.08;0.88;;;8.10;99.90;;;;;;5120996;27;20031;-70
2023/12/19 07:06:59;;;;;;;1.95;0.70;;;8.00;99.90;;;;;;5105947;27;20500;-71
2023/12/19 07:09:24;;;;;;;2.28;0.82;;;8.10;99.90;;;;;;5104803;27;20088;-70
2023/12/19 07:11:50;;;;;;;1.63;0.55;;;8.00;99.90;;;;;;5088911;27;20039;-71
2023/12/19 07:14:16;;;;;;;3.33;0.90;;;8.10;99.90;;;;;;5132425;27;20075;-70
2023/12/19 07:16:42;;;;;;;3.10;0.85;;;8.10;99.90;;;;;;5108545;27;20071;-71
2023/12/19 07:19:07;;;;;;;1.73;0.68;;;8.10;99.90;;;;;;5099585;27;20077;-71
2023/12/19 07:21:35;;;;;;;2.38;1.13;;;8.10;99.90;;;;;;5110183;27;20466;-71
2023/12/19 07:24:01;;;;;;;2.45;0.82;;;8.10;99.90;;;;;;5103822;27;20523;-71
2023/12/19 07:26:28;;;;;;;2.42;1.27;;;8.10;99.90;;;;;;5093371;27;20035;-71
2023/12/19 07:28:58;;;;;;;2.05;0.77;;;8.10;99.90;;;;;;5106056;27;20075;-71
2023/12/19 07:31:31;;;;;;;2.40;0.98;;;8.10;99.90;;;;;;5125724;27;20084;-70
2023/12/19 07:34:06;;;;;;;2.03;1.02;;;8.10;99.90;;;;;;5091684;27;20043;-71
2023/12/19 07:36:32;;;;;;;2.30;1.00;;;8.20;99.90;;;;;;5118341;27;20034;-70
2023/12/19 07:38:58;;;;;;;3.70;1.55;;;8.10;99.90;;;;;;5110645;27;20035;-71
2023/12/19 07:41:26;;;;;;;2.30;1.15;;;8.10;99.90;;;;;;5109050;27;20222;-71
2023/12/19 07:43:55;;;;;;;1.92;0.88;;;8.20;99.90;;;;;;5103808;27;20034;-71
2023/12/19 07:46:21;;;;;;;1.73;0.43;;;8.10;99.90;;;;;;5135975;27;20035;-71
2023/12/19 07:48:47;;;;;;;1.55;0.65;;;8.10;99.90;;;;;;5113060;27;20027;-70
2023/12/19 07:51:21;;;;;;;2.08;0.98;;;8.10;99.90;;;;;;5121851;27;20058;-71
2023/12/19 07:53:46;;;;;;;4.40;1.40;;;8.20;99.90;;;;;;5105242;28;20110;-71
2023/12/19 07:56:12;;;;;;;3.03;0.80;;;8.10;99.90;;;;;;5142505;27;20151;-71
2023/12/19 07:58:38;;;;;;;1.30;0.73;;;8.20;99.90;;;;;;5093599;27;20040;-71
2023/12/19 08:01:04;;;;;;;2.00;1.00;;;8.20;99.90;;;;;;5112674;27;20042;-71
2023/12/19 08:03:31;;;;;;;3.75;1.00;;;8.20;99.90;;;;;;5111537;27;20039;-71
2023/12/19 08:05:58;;;;;;;3.40;1.30;;;8.20;99.90;;;;;;5086393;27;20031;-71
2023/12/19 08:08:24;;;;;;;3.55;0.98;;;8.20;99.90;;;;;;5109412;27;20031;-71
2023/12/19 08:10:50;;;;;;;1.60;0.93;;;8.20;99.90;;;;;;5146314;27;20604;-71
2023/12/19 08:13:17;;;;;;;1.02;0.55;;;8.20;99.90;;;;;;5141771;27;20053;-70
2023/12/19 08:15:43;;;;;;;3.17;1.27;;;8.20;99.90;;;;;;5105580;27;20035;-71
2023/12/19 08:18:09;;;;;;;3.30;0.90;;;8.20;99.90;;;;;;5117113;27;20038;-71
2023/12/19 08:20:35;;;;;;;2.08;0.82;;;8.20;99.90;;;;;;5120567;27;20048;-71
2023/12/19 08:23:01;;;;;;;2.33;0.75;;;8.30;99.90;;;;;;5096270;27;20042;-70
2023/12/19 08:25:27;;;;;;;2.08;0.55;;;8.30;99.90;;;;;;5148974;27;20039;-71
2023/12/19 08:27:53;;;;;;;3.30;0.63;;;8.30;99.90;;;;;;5093544;27;20054;-73
2023/12/19 08:30:20;;;;;;;3.05;0.82;;;8.30;99.90;;;;;;5100951;27;20044;-74
2023/12/19 08:32:45;;;;;;;3.80;1.60;;;8.30;99.90;;;;;;5127282;27;20042;-71
2023/12/19 08:35:11;;;;;;;2.75;0.90;;;8.30;99.90;;;;;;5118319;27;20038;-71
2023/12/19 08:37:37;;;;;;;2.80;0.80;;;8.40;99.90;;;;;;5097928;27;20111;-71
2023/12/19 08:40:03;;;;;;;2.80;0.80;;;8.40;99.90;;;;;;5141799;27;20051;-71
2023/12/19 08:42:30;;;;;;;3.33;0.85;;;8.40;99.90;;;;;;5124964;27;20371;-71
2023/12/19 08:44:55;;;;;;;2.72;1.30;;;8.40;99.90;;;;;;5118274;27;20503;-71
2023/12/19 08:47:25;;;;;;;0.75;0.43;;;8.40;99.90;;;;;;5136628;27;20058;-71
2023/12/19 08:49:52;;;;;;;3.28;1.00;;;8.40;99.90;;;;;;5117329;27;20031;-71
2023/12/19 08:52:22;;;;;;;2.42;0.95;;;8.50;99.90;;;;;;5102917;27;20040;-71
2023/12/19 08:54:48;;;;;;;2.28;1.17;;;8.50;99.90;;;;;;5135057;27;21017;-71
2023/12/19 08:57:14;;;;;;;1.77;1.08;;;8.50;99.90;;;;;;5119710;27;20071;-71
2023/12/19 08:59:40;;;;;;;1.88;0.90;;;8.50;99.90;;;;;;5110201;27;20096;-71
2023/12/19 09:02:06;;;;;;;2.35;1.65;;;8.50;99.90;;;;;;5116177;27;20034;-71
2023/12/19 09:04:32;;;;;;;2.78;0.88;;;8.50;99.90;;;;;;5120099;27;20035;-71
2023/12/19 09:06:58;;;;;;;3.25;1.33;;;8.60;99.90;;;;;;5117918;27;20475;-72
2023/12/19 09:09:24;;;;;;;1.92;0.93;;;8.50;99.90;;;;;;5121208;27;20053;-71
2023/12/19 09:11:50;;;;;;;5.63;1.00;;;8.50;99.90;;;;;;5115069;27;20476;-71
2023/12/19 09:14:17;;;;;;;3.47;1.20;;;8.60;99.90;;;;;;5153537;27;21427;-71
2023/12/19 09:16:43;;;;;;;2.55;1.35;;;8.60;99.90;;;;;;5117739;27;20051;-71
2023/12/19 09:19:09;;;;;;;1.95;0.68;;;8.60;99.90;;;;;;5121896;27;20091;-71
2023/12/19 09:21:35;;;;;;;3.60;1.20;;;8.60;99.90;;;;;;5112392;27;20038;-71
2023/12/19 09:24:00;;;;;;;2.13;0.93;;;8.60;99.90;;;;;;5114926;27;20043;-71
2023/12/19 09:26:27;;;;;;;2.20;0.88;;;8.70;99.90;;;;;;5137031;27;20030;-71
2023/12/19 09:28:55;;;;;;;1.55;0.52;;;8.60;99.90;;;;;;5110468;27;20126;-71
2023/12/19 09:31:21;;;;;;;4.35;1.20;;;8.70;99.90;;;;;;5114537;27;20492;-71
2023/12/19 09:33:47;;;;;;;2.25;0.95;;;8.60;99.90;;;;;;5113655;27;20088;-71
2023/12/19 09:36:21;;;;;;;1.70;0.80;;;8.70;99.90;;;;;;5094590;27;20054;-71
2023/12/19 09:38:47;;;;;;;1.45;0.68;;;8.60;99.90;;;;;;5100281;27;20130;-71
2023/12/19 09:41:13;;;;;;;1.90;1.08;;;8.70;99.90;;;;;;5136115;27;20127;-71
2023/12/19 09:43:40;;;;;;;1.48;0.50;;;8.70;99.90;;;;;;5108723;27;20419;-72
2023/12/19 09:46:07;;;;;;;2.88;0.80;;;8.70;99.90;;;;;;5154259;27;20046;-71
2023/12/19 09:48:35;;;;;;;1.95;0.77;;;8.70;99.90;;;;;;5113309;27;20353;-71
2023/12/19 09:51:03;;;;;;;2.30;1.00;;;8.80;99.90;;;;;;5121103;27;20042;-72
2023/12/19 09:53:34;;;;;;;1.77;0.52;;;8.80;99.90;;;;;;5099516;27;20130;-71
2023/12/19 09:56:01;;;;;;;2.47;1.00;;;8.80;99.90;;;;;;5091156;27;20544;-72
2023/12/19 09:58:31;;;;;;;2.70;0.90;;;8.80;99.90;;;;;;5106100;27;20074;-71
2023/12/19 10:01:00;;;;;;;2.85;1.42;;;8.80;99.90;;;;;;5093715;27;20051;-71
2023/12/19 10:03:27;;;;;;;3.05;1.40;;;8.80;99.90;;;;;;5108291;27;20031;-71
2023/12/19 10:05:53;;;;;;;3.65;1.17;;;8.80;99.90;;;;;;5111678;27;20101;-71
2023/12/19 10:08:19;;;;;;;2.78;1.33;;;8.80;99.90;;;;;;5109169;27;20039;-71
2023/12/19 10:10:53;;;;;;;7.63;4.10;;;8.80;99.90;;;;;;5110862;27;20030;-71
2023/12/19 10:13:32;;;;;;;4.45;2.25;;;8.80;99.90;;;;;;5087084;27;20081;-72
2023/12/19 10:15:59;;;;;;;3.03;1.15;;;8.90;99.90;;;;;;5113535;27;20039;-72
2023/12/19 10:18:25;;;;;;;17.15;6.18;;;8.90;99.90;;;;;;5102703;27;20499;-72
2023/12/19 10:21:02;;;;;;;51.97;19.25;;;8.80;99.90;;;;;;5111814;27;20043;-71
2023/12/19 10:23:28;;;;;;;10.90;5.07;;;8.90;99.90;;;;;;5095154;27;20217;-72
2023/12/19 10:25:53;;;;;;;3.00;2.38;;;8.80;99.90;;;;;;5101043;27;20033;-72
2023/12/19 10:28:19;;;;;;;3.17;1.90;;;8.90;99.90;;;;;;5144653;27;20043;-72
2023/12/19 10:30:45;;;;;;;1.67;1.02;;;8.90;99.90;;;;;;5145317;27;20117;-72
2023/12/19 10:33:10;;;;;;;1.75;1.00;;;8.80;99.90;;;;;;5148793;27;20044;-72
2023/12/19 10:35:40;;;;;;;2.00;1.20;;;8.90;99.90;;;;;;5106479;27;21572;-72
2023/12/19 10:38:06;;;;;;;2.80;1.30;;;8.90;99.90;;;;;;5104972;27;20483;-72
2023/12/19 10:40:32;;;;;;;4.47;1.92;;;8.90;99.90;;;;;;5097815;27;20183;-72
2023/12/19 10:42:58;;;;;;;4.50;2.20;;;8.90;99.90;;;;;;5144968;27;20433;-72
2023/12/19 10:45:27;;;;;;;2.60;2.08;;;8.90;99.90;;;;;;5117838;27;20106;-71
2023/12/19 10:47:53;;;;;;;4.68;2.40;;;8.90;99.90;;;;;;5113840;27;20027;-72
2023/12/19 10:50:19;;;;;;;2.95;1.63;;;8.90;99.90;;;;;;5154381;27;20412;-72
2023/12/19 10:52:49;;;;;;;2.22;1.30;;;8.90;99.90;;;;;;5130450;27;20089;-72
2023/12/19 10:55:21;;;;;;;3.33;1.38;;;8.90;99.90;;;;;;5120495;27;20030;-72
2023/12/19 10:57:49;;;;;;;3.13;1.20;;;8.90;99.90;;;;;;5117284;27;20495;-72
2023/12/19 11:00:22;;;;;;;2.25;0.75;;;8.90;99.90;;;;;;5107481;27;20043;-72
2023/12/19 11:03:25;;;;;;;3.17;1.52;;;8.90;99.90;;;;;;5107539;27;20037;-71
2023/12/19 11:05:54;;;;;;;3.72;1.40;;;8.90;99.90;;;;;;5125291;27;20391;-71
2023/12/19 11:08:21;;;;;;;3.97;1.83;;;8.90;99.90;;;;;;5108910;27;20122;-71
2023/12/19 11:11:02;;;;;;;2.60;1.30;;;8.90;99.90;;;;;;5109337;27;20629;-72
2023/12/19 11:13:29;;;;;;;3.75;1.23;;;8.90;99.90;;;;;;5139006;27;20377;-72
2023/12/19 11:16:18;;;;;;;2.85;1.48;;;8.90;99.90;;;;;;5148193;27;20496;-71
2023/12/19 11:18:53;;;;;;;4.05;1.40;;;8.80;99.90;;;;;;5135213;27;20442;-71
2023/12/19 11:21:26;;;;;;;2.85;1.60;;;8.90;99.90;;;;;;5093064;27;20034;-71
2023/12/19 11:24:07;;;;;;;3.67;1.65;;;8.90;99.90;;;;;;5114874;27;20039;-71
2023/12/19 11:26:50;;;;;;;2.88;1.67;;;8.80;99.90;;;;;;5120464;27;20487;-71
2023/12/19 11:29:45;;;;;;;2.35;1.50;;;8.90;99.90;;;;;;5141540;27;20046;-71
2023/12/19 11:32:26;;;;;;;4.60;1.58;;;8.90;99.90;;;;;;5094843;28;20212;-71
2023/12/19 11:34:52;;;;;;;4.72;1.60;;;8.90;99.90;;;;;;5146672;27;20540;-71
2023/12/19 11:37:21;;;;;;;5.63;1.80;;;8.90;99.90;;;;;;5087993;27;20205;-71
2023/12/19 11:39:46;;;;;;;4.05;1.70;;;8.90;99.90;;;;;;5100132;27;20027;-71
2023/12/19 11:42:37;;;;;;;4.80;1.23;;;8.90;99.90;;;;;;5138122;27;20080;-71
2023/12/19 11:45:22;;;;;;;3.42;1.75;;;8.90;99.90;;;;;;5097875;27;20050;-71
2023/12/19 11:47:48;;;;;;;3.58;1.65;;;8.90;99.90;;;;;;5111472;27;20114;-71
2023/12/19 11:50:40;;;;;;;3.53;1.42;;;8.90;99.90;;;;;;5132012;27;20489;-72
2023/12/19 11:53:06;;;;;;;3.78;1.33;;;8.90;99.90;;;;;;5088200;27;20044;-72
2023/12/19 11:55:32;;;;;;;3.15;1.20;;;8.90;99.90;;;;;;5108078;27;20035;-71
2023/12/19 11:58:11;;;;;;;5.20;3.08;;;8.90;99.90;;;;;;5105644;27;20039;-72
2023/12/19 12:00:36;;;;;;;4.03;1.70;;;8.90;99.90;;;;;;5113823;27;20039;-72
2023/12/19 12:03:09;;;;;;;5.30;2.30;;;9.00;99.90;;;;;;5148433;27;20111;-71
2023/12/19 12:05:39;;;;;;;4.00;2.45;;;8.90;99.90;;;;;;5154994;27;20065;-71
2023/12/19 12:08:05;;;;;;;4.93;1.80;;;9.00;99.90;;;;;;5108145;27;20032;-72
2023/12/19 12:10:31;;;;;;;4.15;2.00;;;8.90;99.90;;;;;;5123018;27;20088;-71
2023/12/19 12:12:59;;;;;;;2.72;1.15;;;9.00;99.90;;;;;;5111287;27;20039;-72
2023/12/19 12:15:25;;;;;;;4.07;1.63;;;9.00;99.90;;;;;;5118348;27;20279;-71
2023/12/19 12:18:01;;;;;;;3.90;1.67;;;9.00;99.90;;;;;;5102134;27;20047;-72
2023/12/19 12:20:28;;;;;;;3.83;1.40;;;8.90;99.90;;;;;;5145448;27;20500;-72
2023/12/19 12:22:56;;;;;;;3.63;1.10;;;9.00;99.90;;;;;;5098649;27;20030;-71
2023/12/19 12:25:22;;;;;;;3.00;1.30;;;9.00;99.90;;;;;;5119495;27;20103;-71
2023/12/19 12:27:49;;;;;;;3.45;1.70;;;9.00;99.90;;;;;;5113949;27;20033;-72
2023/12/19 12:30:14;;;;;;;4.60;1.80;;;8.90;99.90;;;;;;5113661;27;20035;-72
2023/12/19 12:32:41;;;;;;;3.83;1.48;;;9.00;99.90;;;;;;5103156;27;20096;-72
2023/12/19 12:35:28;;;;;;;2.40;1.27;;;9.00;99.90;;;;;;5125432;27;20039;-71
2023/12/19 12:37:57;;;;;;;3.30;1.30;;;9.00;99.90;;;;;;5135168;27;20035;-71
2023/12/19 12:40:22;;;;;;;2.30;1.00;;;9.00;99.90;;;;;;5102132;27;20035;-71
2023/12/19 12:42:48;;;;;;;2.70;1.35;;;9.00;99.90;;;;;;5147837;27;20033;-71
2023/12/19 12:45:17;;;;;;;2.88;1.10;;;9.00;99.90;;;;;;5119808;27;20035;-72
2023/12/19 12:47:43;;;;;;;2.67;1.13;;;9.00;99.90;;;;;;5119975;27;20026;-72
2023/12/19 12:50:08;;;;;;;1.70;0.75;;;9.00;99.90;;;;;;5117857;27;20054;-71
2023/12/19 12:52:34;;;;;;;2.67;1.35;;;9.00;99.90;;;;;;5116329;27;20091;-71
2023/12/19 12:55:04;;;;;;;2.25;1.13;;;9.00;99.90;;;;;;5152690;27;20038;-78